sensor_id;sensor_type;location;lat;lon;timestamp;P1;durP1;ratioP1;P2;durP2;ratioP2
57463;SDS011;43309;44.418;26.122;2022-09-29T00:01:04;16.90;;;6.90;;
57463;SDS011;43309;44.418;26.122;2022-09-29T00:03:35;11.40;;;5.60;;
57463;SDS011;43309;44.418;26.122;2022-09-29T00:06:02;20.40;;;6.20;;
57463;SDS011;43309;44.418;26.122;2022-09-29T00:08:29;11.30;;;5.90;;
57463;SDS011;43309;44.418;26.122;2022-09-29T00:10:57;15.90;;;6.80;;
57463;SDS011;43309;44.418;26.122;2022-09-29T00:13:24;10.00;;;5.80;;
57463;SDS011;43309;44.418;26.122;2022-09-29T00:15:58;9.70;;;5.80;;
57463;SDS011;43309;44.418;26.122;2022-09-29T00:18:26;11.80;;;6.00;;
57463;SDS011;43309;44.418;26.122;2022-09-29T00:20:57;12.50;;;6.10;;
57463;SDS011;43309;44.418;26.122;2022-09-29T00:23:29;9.90;;;6.60;;
57463;SDS011;43309;44.418;26.122;2022-09-29T00:26:08;11.80;;;6.40;;
57463;SDS011;43309;44.418;26.122;2022-09-29T00:28:38;13.90;;;6.10;;
57463;SDS011;43309;44.418;26.122;2022-09-29T00:31:07;7.20;;;4.80;;
57463;SDS011;43309;44.418;26.122;2022-09-29T00:33:35;11.30;;;5.50;;
57463;SDS011;43309;44.418;26.122;2022-09-29T00:36:04;10.80;;;5.60;;
57463;SDS011;43309;44.418;26.122;2022-09-29T00:38:34;10.20;;;6.20;;
57463;SDS011;43309;44.418;26.122;2022-09-29T00:41:02;12.30;;;5.50;;
57463;SDS011;43309;44.418;26.122;2022-09-29T00:46:38;9.50;;;5.60;;
57463;SDS011;43309;44.418;26.122;2022-09-29T00:51:41;11.60;;;6.00;;
57463;SDS011;43309;44.418;26.122;2022-09-29T00:54:10;10.60;;;5.60;;
57463;SDS011;43309;44.418;26.122;2022-09-29T00:56:37;10.00;;;5.20;;
57463;SDS011;43309;44.418;26.122;2022-09-29T00:59:06;8.90;;;5.70;;
57463;SDS011;43309;44.418;26.122;2022-09-29T01:01:36;10.30;;;5.50;;
57463;SDS011;43309;44.418;26.122;2022-09-29T01:04:04;8.50;;;4.90;;
57463;SDS011;43309;44.418;26.122;2022-09-29T01:06:38;11.20;;;5.70;;
57463;SDS011;43309;44.418;26.122;2022-09-29T01:09:09;11.80;;;5.60;;
57463;SDS011;43309;44.418;26.122;2022-09-29T01:11:38;7.80;;;4.90;;
57463;SDS011;43309;44.418;26.122;2022-09-29T01:14:06;9.30;;;5.60;;
57463;SDS011;43309;44.418;26.122;2022-09-29T01:16:36;6.80;;;4.60;;
57463;SDS011;43309;44.418;26.122;2022-09-29T01:19:06;10.10;;;5.10;;
57463;SDS011;43309;44.418;26.122;2022-09-29T01:27:38;11.60;;;5.40;;
57463;SDS011;43309;44.418;26.122;2022-09-29T01:30:39;10.60;;;5.50;;
57463;SDS011;43309;44.418;26.122;2022-09-29T01:37:02;12.40;;;6.00;;
57463;SDS011;43309;44.418;26.122;2022-09-29T01:39:35;10.80;;;5.20;;
57463;SDS011;43309;44.418;26.122;2022-09-29T01:42:08;12.60;;;6.00;;
57463;SDS011;43309;44.418;26.122;2022-09-29T01:44:44;12.10;;;6.00;;
57463;SDS011;43309;44.418;26.122;2022-09-29T01:47:22;11.60;;;6.20;;
57463;SDS011;43309;44.418;26.122;2022-09-29T01:49:56;14.70;;;5.70;;
57463;SDS011;43309;44.418;26.122;2022-09-29T01:52:30;12.10;;;5.60;;
57463;SDS011;43309;44.418;26.122;2022-09-29T01:55:01;9.20;;;5.80;;
57463;SDS011;43309;44.418;26.122;2022-09-29T01:57:36;10.20;;;5.80;;
57463;SDS011;43309;44.418;26.122;2022-09-29T02:00:10;12.10;;;6.10;;
57463;SDS011;43309;44.418;26.122;2022-09-29T02:05:37;12.10;;;5.90;;
57463;SDS011;43309;44.418;26.122;2022-09-29T02:08:11;14.30;;;6.30;;
57463;SDS011;43309;44.418;26.122;2022-09-29T02:10:52;12.80;;;6.10;;
57463;SDS011;43309;44.418;26.122;2022-09-29T02:13:24;10.30;;;6.20;;
57463;SDS011;43309;44.418;26.122;2022-09-29T02:15:53;18.70;;;6.60;;
57463;SDS011;43309;44.418;26.122;2022-09-29T02:18:25;10.50;;;5.90;;
57463;SDS011;43309;44.418;26.122;2022-09-29T02:20:55;11.10;;;6.20;;
57463;SDS011;43309;44.418;26.122;2022-09-29T02:23:22;10.00;;;5.70;;
57463;SDS011;43309;44.418;26.122;2022-09-29T02:25:49;8.70;;;5.90;;
57463;SDS011;43309;44.418;26.122;2022-09-29T02:28:18;13.10;;;6.50;;
57463;SDS011;43309;44.418;26.122;2022-09-29T02:30:46;11.80;;;6.20;;
57463;SDS011;43309;44.418;26.122;2022-09-29T02:33:19;16.30;;;5.60;;
57463;SDS011;43309;44.418;26.122;2022-09-29T02:38:55;11.40;;;6.60;;
57463;SDS011;43309;44.418;26.122;2022-09-29T02:44:14;10.50;;;6.20;;
57463;SDS011;43309;44.418;26.122;2022-09-29T02:46:51;11.10;;;6.60;;
57463;SDS011;43309;44.418;26.122;2022-09-29T02:52:01;14.50;;;5.90;;
57463;SDS011;43309;44.418;26.122;2022-09-29T02:59:59;15.80;;;7.70;;
57463;SDS011;43309;44.418;26.122;2022-09-29T03:02:32;13.00;;;6.40;;
57463;SDS011;43309;44.418;26.122;2022-09-29T03:05:00;12.00;;;5.80;;
57463;SDS011;43309;44.418;26.122;2022-09-29T03:07:28;10.30;;;6.20;;
57463;SDS011;43309;44.418;26.122;2022-09-29T03:09:55;9.10;;;6.00;;
57463;SDS011;43309;44.418;26.122;2022-09-29T03:12:23;11.30;;;6.20;;
57463;SDS011;43309;44.418;26.122;2022-09-29T03:14:50;10.60;;;5.80;;
57463;SDS011;43309;44.418;26.122;2022-09-29T03:17:17;13.00;;;6.10;;
57463;SDS011;43309;44.418;26.122;2022-09-29T03:19:45;11.70;;;5.90;;
57463;SDS011;43309;44.418;26.122;2022-09-29T03:22:12;9.60;;;6.00;;
57463;SDS011;43309;44.418;26.122;2022-09-29T03:24:40;10.20;;;5.80;;
57463;SDS011;43309;44.418;26.122;2022-09-29T03:27:08;9.70;;;5.60;;
57463;SDS011;43309;44.418;26.122;2022-09-29T03:29:38;11.10;;;5.90;;
57463;SDS011;43309;44.418;26.122;2022-09-29T03:32:06;11.20;;;6.00;;
57463;SDS011;43309;44.418;26.122;2022-09-29T03:34:34;8.80;;;5.50;;
57463;SDS011;43309;44.418;26.122;2022-09-29T03:37:02;7.20;;;5.50;;
57463;SDS011;43309;44.418;26.122;2022-09-29T03:39:29;10.90;;;6.10;;
57463;SDS011;43309;44.418;26.122;2022-09-29T03:41:57;12.30;;;6.40;;
57463;SDS011;43309;44.418;26.122;2022-09-29T03:44:24;8.80;;;5.70;;
57463;SDS011;43309;44.418;26.122;2022-09-29T03:46:51;9.30;;;6.40;;
57463;SDS011;43309;44.418;26.122;2022-09-29T03:49:19;9.80;;;6.30;;
57463;SDS011;43309;44.418;26.122;2022-09-29T03:51:46;11.40;;;5.60;;
57463;SDS011;43309;44.418;26.122;2022-09-29T03:54:14;11.90;;;6.00;;
57463;SDS011;43309;44.418;26.122;2022-09-29T03:56:41;11.90;;;5.10;;
57463;SDS011;43309;44.418;26.122;2022-09-29T03:59:09;11.90;;;5.70;;
57463;SDS011;43309;44.418;26.122;2022-09-29T04:01:37;12.30;;;5.50;;
57463;SDS011;43309;44.418;26.122;2022-09-29T04:04:05;10.90;;;5.70;;
57463;SDS011;43309;44.418;26.122;2022-09-29T04:06:35;9.50;;;5.20;;
57463;SDS011;43309;44.418;26.122;2022-09-29T04:09:02;7.40;;;5.00;;
57463;SDS011;43309;44.418;26.122;2022-09-29T04:11:30;10.00;;;5.50;;
57463;SDS011;43309;44.418;26.122;2022-09-29T04:13:57;10.60;;;5.40;;
57463;SDS011;43309;44.418;26.122;2022-09-29T04:16:25;14.10;;;5.80;;
57463;SDS011;43309;44.418;26.122;2022-09-29T04:18:52;14.20;;;6.30;;
57463;SDS011;43309;44.418;26.122;2022-09-29T04:21:19;8.20;;;5.10;;
57463;SDS011;43309;44.418;26.122;2022-09-29T04:23:46;10.60;;;5.80;;
57463;SDS011;43309;44.418;26.122;2022-09-29T04:26:14;9.90;;;5.40;;
57463;SDS011;43309;44.418;26.122;2022-09-29T04:28:42;11.30;;;5.60;;
57463;SDS011;43309;44.418;26.122;2022-09-29T04:31:09;9.60;;;5.40;;
57463;SDS011;43309;44.418;26.122;2022-09-29T04:33:36;18.50;;;5.70;;
57463;SDS011;43309;44.418;26.122;2022-09-29T04:36:05;9.10;;;5.30;;
57463;SDS011;43309;44.418;26.122;2022-09-29T04:38:32;10.10;;;5.10;;
57463;SDS011;43309;44.418;26.122;2022-09-29T04:41:00;9.60;;;5.80;;
57463;SDS011;43309;44.418;26.122;2022-09-29T04:43:27;8.70;;;5.40;;
57463;SDS011;43309;44.418;26.122;2022-09-29T04:46:04;9.30;;;5.40;;
57463;SDS011;43309;44.418;26.122;2022-09-29T04:48:33;8.90;;;5.70;;
57463;SDS011;43309;44.418;26.122;2022-09-29T04:51:02;10.90;;;5.60;;
57463;SDS011;43309;44.418;26.122;2022-09-29T04:53:30;7.40;;;4.70;;
57463;SDS011;43309;44.418;26.122;2022-09-29T04:55:57;8.30;;;6.10;;
57463;SDS011;43309;44.418;26.122;2022-09-29T04:58:24;11.60;;;5.70;;
57463;SDS011;43309;44.418;26.122;2022-09-29T05:00:52;11.30;;;6.10;;
57463;SDS011;43309;44.418;26.122;2022-09-29T05:03:19;8.30;;;5.70;;
57463;SDS011;43309;44.418;26.122;2022-09-29T05:05:46;13.10;;;5.70;;
57463;SDS011;43309;44.418;26.122;2022-09-29T05:08:13;9.70;;;5.40;;
57463;SDS011;43309;44.418;26.122;2022-09-29T05:10:41;8.60;;;5.30;;
57463;SDS011;43309;44.418;26.122;2022-09-29T05:13:09;12.20;;;5.70;;
57463;SDS011;43309;44.418;26.122;2022-09-29T05:15:36;12.70;;;5.50;;
57463;SDS011;43309;44.418;26.122;2022-09-29T05:18:03;13.00;;;5.60;;
57463;SDS011;43309;44.418;26.122;2022-09-29T05:20:31;7.40;;;4.70;;
57463;SDS011;43309;44.418;26.122;2022-09-29T05:22:59;8.20;;;5.10;;
57463;SDS011;43309;44.418;26.122;2022-09-29T05:25:26;9.50;;;5.60;;
57463;SDS011;43309;44.418;26.122;2022-09-29T05:27:54;13.50;;;5.50;;
57463;SDS011;43309;44.418;26.122;2022-09-29T05:30:23;15.70;;;6.10;;
57463;SDS011;43309;44.418;26.122;2022-09-29T05:32:50;10.50;;;5.50;;
57463;SDS011;43309;44.418;26.122;2022-09-29T05:35:18;9.40;;;5.10;;
57463;SDS011;43309;44.418;26.122;2022-09-29T05:37:45;11.20;;;5.10;;
57463;SDS011;43309;44.418;26.122;2022-09-29T05:40:12;13.10;;;5.10;;
57463;SDS011;43309;44.418;26.122;2022-09-29T05:42:40;11.40;;;5.10;;
57463;SDS011;43309;44.418;26.122;2022-09-29T05:45:07;11.10;;;5.30;;
57463;SDS011;43309;44.418;26.122;2022-09-29T05:47:41;9.80;;;5.00;;
57463;SDS011;43309;44.418;26.122;2022-09-29T05:52:39;10.80;;;6.40;;
57463;SDS011;43309;44.418;26.122;2022-09-29T05:55:06;7.80;;;4.70;;
57463;SDS011;43309;44.418;26.122;2022-09-29T05:57:36;9.60;;;4.90;;
57463;SDS011;43309;44.418;26.122;2022-09-29T06:00:04;9.30;;;5.50;;
57463;SDS011;43309;44.418;26.122;2022-09-29T06:02:32;8.30;;;6.10;;
57463;SDS011;43309;44.418;26.122;2022-09-29T06:04:59;10.90;;;6.00;;
57463;SDS011;43309;44.418;26.122;2022-09-29T06:07:27;7.90;;;4.80;;
57463;SDS011;43309;44.418;26.122;2022-09-29T06:09:54;10.10;;;5.50;;
57463;SDS011;43309;44.418;26.122;2022-09-29T06:12:21;6.50;;;5.50;;
57463;SDS011;43309;44.418;26.122;2022-09-29T06:14:49;10.20;;;5.30;;
57463;SDS011;43309;44.418;26.122;2022-09-29T06:17:16;8.80;;;4.80;;
57463;SDS011;43309;44.418;26.122;2022-09-29T06:19:43;11.90;;;5.60;;
57463;SDS011;43309;44.418;26.122;2022-09-29T06:22:11;9.40;;;4.90;;
57463;SDS011;43309;44.418;26.122;2022-09-29T06:24:38;11.90;;;5.50;;
57463;SDS011;43309;44.418;26.122;2022-09-29T06:27:05;10.10;;;5.40;;
57463;SDS011;43309;44.418;26.122;2022-09-29T06:29:33;14.30;;;5.10;;
57463;SDS011;43309;44.418;26.122;2022-09-29T06:32:00;12.90;;;5.60;;
57463;SDS011;43309;44.418;26.122;2022-09-29T06:34:29;12.50;;;5.20;;
57463;SDS011;43309;44.418;26.122;2022-09-29T06:36:56;11.10;;;5.40;;
57463;SDS011;43309;44.418;26.122;2022-09-29T06:39:42;9.20;;;5.10;;
57463;SDS011;43309;44.418;26.122;2022-09-29T06:42:09;12.90;;;5.40;;
57463;SDS011;43309;44.418;26.122;2022-09-29T06:44:37;9.60;;;5.30;;
57463;SDS011;43309;44.418;26.122;2022-09-29T06:47:05;10.60;;;5.10;;
57463;SDS011;43309;44.418;26.122;2022-09-29T06:49:32;8.00;;;4.90;;
57463;SDS011;43309;44.418;26.122;2022-09-29T06:52:00;12.30;;;5.00;;
57463;SDS011;43309;44.418;26.122;2022-09-29T06:54:27;9.20;;;4.80;;
57463;SDS011;43309;44.418;26.122;2022-09-29T06:56:55;16.90;;;6.40;;
57463;SDS011;43309;44.418;26.122;2022-09-29T06:59:22;10.80;;;5.30;;
57463;SDS011;43309;44.418;26.122;2022-09-29T07:01:50;9.60;;;5.60;;
57463;SDS011;43309;44.418;26.122;2022-09-29T07:04:19;9.30;;;5.60;;
57463;SDS011;43309;44.418;26.122;2022-09-29T07:06:48;11.70;;;5.20;;
57463;SDS011;43309;44.418;26.122;2022-09-29T07:09:16;8.30;;;5.30;;
57463;SDS011;43309;44.418;26.122;2022-09-29T07:11:44;12.40;;;5.30;;
57463;SDS011;43309;44.418;26.122;2022-09-29T07:14:16;8.70;;;4.60;;
57463;SDS011;43309;44.418;26.122;2022-09-29T07:16:46;13.00;;;5.20;;
57463;SDS011;43309;44.418;26.122;2022-09-29T07:19:14;12.50;;;5.90;;
57463;SDS011;43309;44.418;26.122;2022-09-29T07:21:45;12.70;;;4.50;;
57463;SDS011;43309;44.418;26.122;2022-09-29T07:24:14;7.80;;;4.60;;
57463;SDS011;43309;44.418;26.122;2022-09-29T07:26:41;7.70;;;4.30;;
57463;SDS011;43309;44.418;26.122;2022-09-29T07:29:08;11.40;;;4.20;;
57463;SDS011;43309;44.418;26.122;2022-09-29T07:31:36;10.80;;;4.30;;
57463;SDS011;43309;44.418;26.122;2022-09-29T07:34:04;9.50;;;4.50;;
57463;SDS011;43309;44.418;26.122;2022-09-29T07:36:32;7.50;;;4.60;;
57463;SDS011;43309;44.418;26.122;2022-09-29T07:38:59;6.30;;;4.20;;
57463;SDS011;43309;44.418;26.122;2022-09-29T07:41:26;10.80;;;4.20;;
57463;SDS011;43309;44.418;26.122;2022-09-29T07:43:53;9.00;;;4.00;;
57463;SDS011;43309;44.418;26.122;2022-09-29T07:46:20;7.00;;;3.30;;
57463;SDS011;43309;44.418;26.122;2022-09-29T07:48:48;10.10;;;4.20;;
57463;SDS011;43309;44.418;26.122;2022-09-29T07:51:17;10.40;;;3.90;;
57463;SDS011;43309;44.418;26.122;2022-09-29T07:53:45;11.20;;;4.80;;
57463;SDS011;43309;44.418;26.122;2022-09-29T07:58:47;7.90;;;3.60;;
57463;SDS011;43309;44.418;26.122;2022-09-29T08:01:16;6.50;;;4.30;;
57463;SDS011;43309;44.418;26.122;2022-09-29T08:03:50;5.90;;;4.00;;
57463;SDS011;43309;44.418;26.122;2022-09-29T08:06:20;7.90;;;4.10;;
57463;SDS011;43309;44.418;26.122;2022-09-29T08:08:47;11.30;;;4.40;;
57463;SDS011;43309;44.418;26.122;2022-09-29T08:11:15;5.50;;;4.10;;
57463;SDS011;43309;44.418;26.122;2022-09-29T08:13:46;6.10;;;3.70;;
57463;SDS011;43309;44.418;26.122;2022-09-29T08:16:14;10.80;;;4.10;;
57463;SDS011;43309;44.418;26.122;2022-09-29T08:18:41;10.00;;;4.30;;
57463;SDS011;43309;44.418;26.122;2022-09-29T08:21:09;10.60;;;4.40;;
57463;SDS011;43309;44.418;26.122;2022-09-29T08:23:38;9.60;;;4.20;;
57463;SDS011;43309;44.418;26.122;2022-09-29T08:26:07;8.00;;;3.80;;
57463;SDS011;43309;44.418;26.122;2022-09-29T08:28:40;8.40;;;3.80;;
57463;SDS011;43309;44.418;26.122;2022-09-29T08:31:10;15.70;;;6.10;;
57463;SDS011;43309;44.418;26.122;2022-09-29T08:33:47;13.20;;;5.00;;
57463;SDS011;43309;44.418;26.122;2022-09-29T08:36:18;10.20;;;4.40;;
57463;SDS011;43309;44.418;26.122;2022-09-29T08:38:46;8.00;;;4.50;;
57463;SDS011;43309;44.418;26.122;2022-09-29T08:46:53;8.80;;;3.50;;
57463;SDS011;43309;44.418;26.122;2022-09-29T08:49:26;10.10;;;4.70;;
57463;SDS011;43309;44.418;26.122;2022-09-29T08:52:01;7.80;;;3.60;;
57463;SDS011;43309;44.418;26.122;2022-09-29T08:54:41;8.60;;;3.90;;
57463;SDS011;43309;44.418;26.122;2022-09-29T08:57:11;10.30;;;4.30;;
57463;SDS011;43309;44.418;26.122;2022-09-29T08:59:56;14.00;;;4.60;;
57463;SDS011;43309;44.418;26.122;2022-09-29T09:10:31;15.10;;;4.80;;
57463;SDS011;43309;44.418;26.122;2022-09-29T09:16:54;11.90;;;4.10;;
57463;SDS011;43309;44.418;26.122;2022-09-29T09:20:00;8.10;;;3.80;;
57463;SDS011;43309;44.418;26.122;2022-09-29T09:22:54;6.70;;;3.50;;
57463;SDS011;43309;44.418;26.122;2022-09-29T09:25:30;7.10;;;3.30;;
57463;SDS011;43309;44.418;26.122;2022-09-29T09:28:19;9.90;;;3.70;;
57463;SDS011;43309;44.418;26.122;2022-09-29T09:30:57;7.70;;;3.40;;
57463;SDS011;43309;44.418;26.122;2022-09-29T09:33:33;8.50;;;3.70;;
57463;SDS011;43309;44.418;26.122;2022-09-29T09:36:17;8.90;;;3.90;;
57463;SDS011;43309;44.418;26.122;2022-09-29T09:41:23;7.60;;;3.60;;
57463;SDS011;43309;44.418;26.122;2022-09-29T09:43:52;8.30;;;3.50;;
57463;SDS011;43309;44.418;26.122;2022-09-29T09:46:57;5.90;;;3.50;;
57463;SDS011;43309;44.418;26.122;2022-09-29T09:49:31;10.10;;;3.30;;
57463;SDS011;43309;44.418;26.122;2022-09-29T09:54:32;11.30;;;3.20;;
57463;SDS011;43309;44.418;26.122;2022-09-29T10:02:55;9.60;;;3.70;;
57463;SDS011;43309;44.418;26.122;2022-09-29T10:05:25;8.70;;;3.60;;
57463;SDS011;43309;44.418;26.122;2022-09-29T10:07:56;8.50;;;3.60;;
57463;SDS011;43309;44.418;26.122;2022-09-29T10:10:24;9.20;;;4.10;;
57463;SDS011;43309;44.418;26.122;2022-09-29T10:15:42;7.60;;;3.90;;
57463;SDS011;43309;44.418;26.122;2022-09-29T10:18:19;6.90;;;3.90;;
57463;SDS011;43309;44.418;26.122;2022-09-29T10:20:49;9.50;;;3.60;;
57463;SDS011;43309;44.418;26.122;2022-09-29T10:25:53;9.50;;;3.00;;
57463;SDS011;43309;44.418;26.122;2022-09-29T10:28:25;6.90;;;3.20;;
57463;SDS011;43309;44.418;26.122;2022-09-29T10:30:55;7.00;;;3.30;;
57463;SDS011;43309;44.418;26.122;2022-09-29T10:33:23;12.30;;;3.80;;
57463;SDS011;43309;44.418;26.122;2022-09-29T10:36:03;11.50;;;3.90;;
57463;SDS011;43309;44.418;26.122;2022-09-29T10:38:34;11.80;;;3.30;;
57463;SDS011;43309;44.418;26.122;2022-09-29T10:41:04;9.50;;;4.20;;
57463;SDS011;43309;44.418;26.122;2022-09-29T10:43:36;5.90;;;3.00;;
57463;SDS011;43309;44.418;26.122;2022-09-29T10:49:34;5.00;;;2.90;;
57463;SDS011;43309;44.418;26.122;2022-09-29T10:52:02;10.40;;;3.40;;
57463;SDS011;43309;44.418;26.122;2022-09-29T10:54:31;6.80;;;2.70;;
57463;SDS011;43309;44.418;26.122;2022-09-29T10:57:10;9.50;;;3.00;;
57463;SDS011;43309;44.418;26.122;2022-09-29T10:59:45;5.80;;;2.70;;
